Time,TemperatureF,DewpointF,PressureIn,WindDirection,WindDirectionDegrees,WindSpeedMPH,WindSpeedGustMPH,Humidity,HourlyPrecipIn,Conditions,Clouds,dailyrainin,SoftwareType,DateUTC
2013-02-15 00:05:00,41.0,39.1,30.12,South,172,0.0,6.0,93,0.00,,,0.00,Wunderground v.1.15,2013-02-15 06:05:00,
2013-02-15 00:10:00,40.7,38.8,30.12,South,172,0.0,0.0,93,0.00,,,0.00,Wunderground v.1.15,2013-02-15 06:10:00,
2013-02-15 00:15:00,40.6,38.7,30.12,South,172,0.0,0.0,93,0.00,,,0.00,Wunderground v.1.15,2013-02-15 06:15:00,
2013-02-15 00:20:00,40.4,38.5,30.12,South,172,0.0,0.0,93,0.00,,,0.00,Wunderground v.1.15,2013-02-15 06:20:00,
2013-02-15 00:26:00,40.1,38.2,30.12,South,172,0.0,0.0,93,0.00,,,0.00,Wunderground v.1.15,2013-02-15 06:26:00,
2013-02-15 00:31:00,40.1,38.5,30.12,South,172,0.0,0.0,94,0.00,,,0.00,Wunderground v.1.15,2013-02-15 06:31:00,
2013-02-15 00:36:00,40.1,38.5,30.13,South,172,0.0,0.0,94,0.00,,,0.00,Wunderground v.1.15,2013-02-15 06:36:00,
2013-02-15 00:41:00,40.0,38.4,30.12,South,172,0.0,0.0,94,0.00,,,0.00,Wunderground v.1.15,2013-02-15 06:41:00,
2013-02-15 00:47:00,39.9,38.3,30.13,South,172,0.0,0.0,94,0.00,,,0.00,Wunderground v.1.15,2013-02-15 06:47:00,
2013-02-15 00:52:00,39.8,38.2,30.13,South,172,0.0,0.0,94,0.00,,,0.00,Wunderground v.1.15,2013-02-15 06:52:00,
2013-02-15 00:57:00,39.7,38.1,30.13,South,172,0.0,0.0,94,0.00,,,0.00,Wunderground v.1.15,2013-02-15 06:57:00,
2013-02-15 01:03:00,39.7,38.1,30.14,South,172,0.0,0.0,94,0.00,,,0.00,Wunderground v.1.15,2013-02-15 07:03:00,
2013-02-15 01:08:00,39.6,38.0,30.14,South,172,0.0,0.0,94,0.00,,,0.00,Wunderground v.1.15,2013-02-15 07:08:00,
2013-02-15 01:14:00,39.5,37.9,30.14,South,172,0.0,0.0,94,0.00,,,0.00,Wunderground v.1.15,2013-02-15 07:14:00,
2013-02-15 01:20:00,39.3,37.7,30.14,South,172,0.0,0.0,94,0.00,,,0.00,Wunderground v.1.15,2013-02-15 07:20:00,
2013-02-15 01:25:00,39.2,37.6,30.14,South,172,0.0,0.0,94,0.00,,,0.00,Wunderground v.1.15,2013-02-15 07:25:00,
2013-02-15 01:30:00,39.1,37.5,30.14,South,172,0.0,0.0,94,0.00,,,0.00,Wunderground v.1.15,2013-02-15 07:30:00,
2013-02-15 01:35:00,39.1,37.5,30.15,South,172,0.0,0.0,94,0.00,,,0.00,Wunderground v.1.15,2013-02-15 07:35:00,
2013-02-15 01:40:00,39.0,37.4,30.15,South,172,0.0,0.0,94,0.00,,,0.00,Wunderground v.1.15,2013-02-15 07:40:00,
2013-02-15 01:45:00,38.8,37.2,30.15,South,172,0.0,0.0,94,0.00,,,0.00,Wunderground v.1.15,2013-02-15 07:45:00,
2013-02-15 01:50:00,38.6,37.0,30.14,South,172,0.0,0.0,94,0.00,,,0.00,Wunderground v.1.15,2013-02-15 07:50:00,
2013-02-15 01:56:00,38.6,37.0,30.14,South,172,0.0,0.0,94,0.00,,,0.00,Wunderground v.1.15,2013-02-15 07:56:00,
2013-02-15 02:01:00,38.4,36.8,30.14,South,172,0.0,0.0,94,0.00,,,0.00,Wunderground v.1.15,2013-02-15 08:01:00,
2013-02-15 02:06:00,38.3,36.7,30.14,South,172,0.0,0.0,94,0.00,,,0.00,Wunderground v.1.15,2013-02-15 08:06:00,
2013-02-15 02:11:00,38.3,37.0,30.14,SSW,210,0.0,1.0,95,0.00,,,0.00,Wunderground v.1.15,2013-02-15 08:11:00,
2013-02-15 02:17:00,38.4,37.1,30.13,SSW,210,0.0,0.0,95,0.00,,,0.00,Wunderground v.1.15,2013-02-15 08:17:00,
2013-02-15 02:22:00,38.4,37.1,30.14,SSW,210,0.0,0.0,95,0.00,,,0.00,Wunderground v.1.15,2013-02-15 08:22:00,
2013-02-15 02:27:00,38.2,36.9,30.14,SSW,210,0.0,0.0,95,0.00,,,0.00,Wunderground v.1.15,2013-02-15 08:27:00,
2013-02-15 02:33:00,37.9,36.3,30.14,SSW,210,0.0,0.0,94,0.00,,,0.00,Wunderground v.1.15,2013-02-15 08:33:00,
2013-02-15 02:38:00,37.8,36.5,30.14,SSW,210,0.0,0.0,95,0.00,,,0.00,Wunderground v.1.15,2013-02-15 08:38:00,
2013-02-15 02:43:00,38.0,36.7,30.14,SSW,210,0.0,0.0,95,0.00,,,0.00,Wunderground v.1.15,2013-02-15 08:43:00,
2013-02-15 02:48:00,38.0,36.7,30.14,SSW,210,0.0,0.0,95,0.00,,,0.00,Wunderground v.1.15,2013-02-15 08:48:00,
2013-02-15 02:54:00,37.9,36.6,30.14,SSW,210,0.0,0.0,95,0.00,,,0.00,Wunderground v.1.15,2013-02-15 08:54:00,
2013-02-15 02:59:00,37.7,36.4,30.14,SSW,210,0.0,0.0,95,0.00,,,0.00,Wunderground v.1.15,2013-02-15 08:59:00,
2013-02-15 03:05:00,37.5,36.2,30.13,SSW,210,0.0,0.0,95,0.00,,,0.00,Wunderground v.1.15,2013-02-15 09:05:00,
2013-02-15 03:11:00,37.6,36.3,30.13,SSW,210,0.0,0.0,95,0.00,,,0.00,Wunderground v.1.15,2013-02-15 09:11:00,
2013-02-15 03:16:00,37.7,36.4,30.13,SSW,210,0.0,0.0,95,0.00,,,0.00,Wunderground v.1.15,2013-02-15 09:16:00,
2013-02-15 03:21:00,37.9,36.6,30.13,SSW,210,0.0,0.0,95,0.00,,,0.00,Wunderground v.1.15,2013-02-15 09:21:00,
2013-02-15 03:27:00,37.8,36.5,30.13,SSW,210,0.0,0.0,95,0.00,,,0.00,Wunderground v.1.15,2013-02-15 09:27:00,
2013-02-15 03:32:00,37.8,36.5,30.13,SSW,210,0.0,0.0,95,0.00,,,0.00,Wunderground v.1.15,2013-02-15 09:32:00,
2013-02-15 03:37:00,37.8,36.5,30.14,SSW,210,0.0,0.0,95,0.00,,,0.00,Wunderground v.1.15,2013-02-15 09:37:00,
2013-02-15 03:42:00,37.7,36.4,30.14,SSW,210,0.0,0.0,95,0.00,,,0.00,Wunderground v.1.15,2013-02-15 09:42:00,
2013-02-15 03:48:00,37.6,36.3,30.14,SSW,210,0.0,0.0,95,0.00,,,0.00,Wunderground v.1.15,2013-02-15 09:48:00,
2013-02-15 03:53:00,37.7,36.4,30.14,SSW,210,0.0,0.0,95,0.00,,,0.00,Wunderground v.1.15,2013-02-15 09:53:00,
2013-02-15 03:59:00,37.5,36.2,30.14,SSW,210,0.0,0.0,95,0.00,,,0.00,Wunderground v.1.15,2013-02-15 09:59:00,
2013-02-15 04:05:00,37.2,35.9,30.14,SSW,210,0.0,0.0,95,0.00,,,0.00,Wunderground v.1.15,2013-02-15 10:05:00,
2013-02-15 04:10:00,37.2,35.9,30.14,SSW,210,0.0,0.0,95,0.00,,,0.00,Wunderground v.1.15,2013-02-15 10:10:00,
2013-02-15 04:15:00,37.1,35.8,30.14,SSW,210,0.0,0.0,95,0.00,,,0.00,Wunderground v.1.15,2013-02-15 10:15:00,
2013-02-15 04:21:00,36.9,35.6,30.14,SSW,210,0.0,0.0,95,0.00,,,0.00,Wunderground v.1.15,2013-02-15 10:21:00,
2013-02-15 04:26:00,36.9,35.6,30.14,SSW,210,0.0,0.0,95,0.00,,,0.00,Wunderground v.1.15,2013-02-15 10:26:00,
2013-02-15 04:31:00,37.1,35.8,30.14,SSW,210,0.0,0.0,95,0.00,,,0.00,Wunderground v.1.15,2013-02-15 10:31:00,
2013-02-15 04:36:00,37.1,36.1,30.14,SSW,210,0.0,0.0,96,0.00,,,0.00,Wunderground v.1.15,2013-02-15 10:36:00,
2013-02-15 04:42:00,37.1,35.8,30.14,SSW,210,0.0,0.0,95,0.00,,,0.00,Wunderground v.1.15,2013-02-15 10:42:00,
2013-02-15 04:47:00,37.0,35.7,30.14,SSW,210,0.0,0.0,95,0.00,,,0.00,Wunderground v.1.15,2013-02-15 10:47:00,
2013-02-15 04:53:00,36.9,35.6,30.15,SSW,210,0.0,0.0,95,0.00,,,0.00,Wunderground v.1.15,2013-02-15 10:53:00,
2013-02-15 04:58:00,36.9,35.6,30.15,SSW,210,0.0,0.0,95,0.00,,,0.00,Wunderground v.1.15,2013-02-15 10:58:00,
2013-02-15 05:04:00,36.8,35.5,30.15,SSW,210,0.0,0.0,95,0.00,,,0.00,Wunderground v.1.15,2013-02-15 11:04:00,
2013-02-15 05:09:00,36.9,35.6,30.15,SSW,210,0.0,0.0,95,0.00,,,0.00,Wunderground v.1.15,2013-02-15 11:09:00,
2013-02-15 05:15:00,36.7,35.4,30.15,SSW,210,0.0,0.0,95,0.00,,,0.00,Wunderground v.1.15,2013-02-15 11:15:00,
2013-02-15 05:20:00,36.4,35.1,30.15,SSW,210,0.0,0.0,95,0.00,,,0.00,Wunderground v.1.15,2013-02-15 11:20:00,
2013-02-15 05:25:00,36.0,34.7,30.15,SSW,210,0.0,0.0,95,0.00,,,0.00,Wunderground v.1.15,2013-02-15 11:25:00,
2013-02-15 05:30:00,35.8,34.5,30.15,SSW,210,0.0,0.0,95,0.00,,,0.00,Wunderground v.1.15,2013-02-15 11:30:00,
2013-02-15 05:36:00,36.1,34.8,30.15,SSW,210,0.0,0.0,95,0.00,,,0.00,Wunderground v.1.15,2013-02-15 11:36:00,
2013-02-15 05:41:00,36.4,35.4,30.16,SSW,210,0.0,0.0,96,0.00,,,0.00,Wunderground v.1.15,2013-02-15 11:41:00,
2013-02-15 05:47:00,36.4,35.4,30.16,SSW,210,0.0,0.0,96,0.00,,,0.00,Wunderground v.1.15,2013-02-15 11:47:00,
2013-02-15 05:52:00,36.4,35.4,30.16,SSW,210,0.0,0.0,96,0.00,,,0.00,Wunderground v.1.15,2013-02-15 11:52:00,
2013-02-15 05:58:00,36.5,35.5,30.16,SSW,210,0.0,0.0,96,0.00,,,0.00,Wunderground v.1.15,2013-02-15 11:58:00,
2013-02-15 06:03:00,36.5,35.5,30.17,SSW,210,0.0,0.0,96,0.00,,,0.00,Wunderground v.1.15,2013-02-15 12:03:00,
2013-02-15 06:09:00,36.4,35.4,30.17,SSW,210,0.0,0.0,96,0.00,,,0.00,Wunderground v.1.15,2013-02-15 12:09:00,
2013-02-15 06:15:00,36.3,35.3,30.17,SSW,210,0.0,0.0,96,0.00,,,0.00,Wunderground v.1.15,2013-02-15 12:15:00,
2013-02-15 06:20:00,36.3,35.3,30.17,SSW,210,0.0,0.0,96,0.00,,,0.00,Wunderground v.1.15,2013-02-15 12:20:00,
2013-02-15 06:25:00,36.2,35.2,30.17,SSW,210,0.0,0.0,96,0.00,,,0.00,Wunderground v.1.15,2013-02-15 12:25:00,
2013-02-15 06:31:00,36.1,35.1,30.17,SSW,210,0.0,0.0,96,0.00,,,0.00,Wunderground v.1.15,2013-02-15 12:31:00,
2013-02-15 06:36:00,36.1,35.1,30.17,SSW,210,0.0,0.0,96,0.00,,,0.00,Wunderground v.1.15,2013-02-15 12:36:00,
2013-02-15 06:41:00,36.1,35.1,30.18,SSW,210,0.0,0.0,96,0.00,,,0.00,Wunderground v.1.15,2013-02-15 12:41:00,
2013-02-15 06:46:00,36.1,35.1,30.18,SSW,210,0.0,0.0,96,0.00,,,0.00,Wunderground v.1.15,2013-02-15 12:46:00,
2013-02-15 06:52:00,36.1,35.1,30.18,SSW,210,0.0,0.0,96,0.00,,,0.00,Wunderground v.1.15,2013-02-15 12:52:00,
2013-02-15 06:57:00,36.0,35.0,30.18,SSW,210,0.0,0.0,96,0.00,,,0.00,Wunderground v.1.15,2013-02-15 12:57:00,
2013-02-15 07:03:00,36.1,35.1,30.19,SSW,210,0.0,0.0,96,0.00,,,0.00,Wunderground v.1.15,2013-02-15 13:03:00,
2013-02-15 07:08:00,36.3,35.3,30.19,SSW,210,0.0,1.0,96,0.00,,,0.00,Wunderground v.1.15,2013-02-15 13:08:00,
2013-02-15 07:14:00,36.6,35.6,30.19,SSW,210,0.0,1.0,96,0.00,,,0.00,Wunderground v.1.15,2013-02-15 13:14:00,
2013-02-15 07:19:00,36.8,35.8,30.20,SSW,210,0.0,0.0,96,0.00,,,0.00,Wunderground v.1.15,2013-02-15 13:19:00,
2013-02-15 07:25:00,37.4,36.1,30.20,SSW,210,0.0,0.0,95,0.00,,,0.00,Wunderground v.1.15,2013-02-15 13:25:00,
2013-02-15 07:30:00,38.3,37.3,30.20,SSW,210,0.0,0.0,96,0.00,,,0.00,Wunderground v.1.15,2013-02-15 13:30:00,
2013-02-15 07:35:00,39.7,38.7,30.20,SSW,210,0.0,0.0,96,0.00,,,0.00,Wunderground v.1.15,2013-02-15 13:35:00,
2013-02-15 07:40:00,40.6,39.5,30.20,SSW,210,0.0,0.0,96,0.00,,,0.00,Wunderground v.1.15,2013-02-15 13:40:00,
2013-02-15 07:46:00,41.4,40.3,30.20,SSW,209,0.0,0.0,96,0.00,,,0.00,Wunderground v.1.15,2013-02-15 13:46:00,
2013-02-15 07:51:00,42.5,41.4,30.20,SSW,210,0.0,0.0,96,0.00,,,0.00,Wunderground v.1.15,2013-02-15 13:51:00,
2013-02-15 07:56:00,43.0,41.7,30.21,SSW,211,0.0,0.0,95,0.00,,,0.00,Wunderground v.1.15,2013-02-15 13:56:00,
2013-02-15 08:01:00,42.9,41.3,30.22,NW,305,0.0,1.0,94,0.00,,,0.00,Wunderground v.1.15,2013-02-15 14:01:00,
2013-02-15 08:07:00,43.1,41.5,30.22,WNW,293,1.0,1.0,94,0.00,,,0.00,Wunderground v.1.15,2013-02-15 14:07:00,
2013-02-15 08:12:00,43.5,41.9,30.22,WNW,288,1.0,2.0,94,0.00,,,0.00,Wunderground v.1.15,2013-02-15 14:12:00,
2013-02-15 08:18:00,44.0,42.1,30.22,NNW,328,1.0,2.0,93,0.00,,,0.00,Wunderground v.1.15,2013-02-15 14:18:00,
2013-02-15 08:23:00,44.7,42.5,30.22,NW,314,1.0,2.0,92,0.00,,,0.00,Wunderground v.1.15,2013-02-15 14:23:00,
2013-02-15 08:29:00,45.5,43.0,30.23,WNW,302,1.0,1.0,91,0.00,,,0.00,Wunderground v.1.15,2013-02-15 14:29:00,
2013-02-15 08:34:00,46.3,43.5,30.23,WNW,290,1.0,1.0,90,0.00,,,0.00,Wunderground v.1.15,2013-02-15 14:34:00,
2013-02-15 08:40:00,47.1,43.4,30.23,WNW,284,1.0,2.0,87,0.00,,,0.00,Wunderground v.1.15,2013-02-15 14:40:00,
2013-02-15 08:45:00,48.0,44.0,30.23,NNE,18,1.0,2.0,86,0.00,,,0.00,Wunderground v.1.15,2013-02-15 14:45:00,
2013-02-15 08:50:00,48.9,44.3,30.23,WNW,300,1.0,3.0,84,0.00,,,0.00,Wunderground v.1.15,2013-02-15 14:50:00,
2013-02-15 08:56:00,49.4,43.8,30.23,ENE,58,1.0,3.0,81,0.00,,,0.00,Wunderground v.1.15,2013-02-15 14:56:00,
2013-02-15 09:01:00,49.9,43.3,30.23,ENE,74,1.0,4.0,78,0.00,,,0.00,Wunderground v.1.15,2013-02-15 15:01:00,
2013-02-15 09:06:00,50.6,43.3,30.23,North,9,2.0,2.0,76,0.00,,,0.00,Wunderground v.1.15,2013-02-15 15:06:00,
2013-02-15 09:11:00,51.0,43.4,30.23,WNW,300,2.0,2.0,75,0.00,,,0.00,Wunderground v.1.15,2013-02-15 15:11:00,
2013-02-15 09:17:00,51.7,43.7,30.22,ENE,58,1.0,1.0,74,0.00,,,0.00,Wunderground v.1.15,2013-02-15 15:17:00,
2013-02-15 09:22:00,52.5,44.1,30.22,ENE,62,1.0,2.0,73,0.00,,,0.00,Wunderground v.1.15,2013-02-15 15:22:00,
2013-02-15 09:27:00,53.3,44.1,30.22,WNW,302,1.0,3.0,71,0.00,,,0.00,Wunderground v.1.15,2013-02-15 15:27:00,
2013-02-15 09:33:00,53.7,43.8,30.22,North,10,1.0,3.0,69,0.00,,,0.00,Wunderground v.1.15,2013-02-15 15:33:00,
2013-02-15 09:38:00,54.0,43.7,30.22,West,274,1.0,2.0,68,0.00,,,0.00,Wunderground v.1.15,2013-02-15 15:38:00,
2013-02-15 09:43:00,54.3,43.6,30.22,NNE,16,2.0,3.0,67,0.00,,,0.00,Wunderground v.1.15,2013-02-15 15:43:00,
2013-02-15 09:48:00,54.9,43.7,30.22,NNE,18,2.0,4.0,66,0.00,,,0.00,Wunderground v.1.15,2013-02-15 15:48:00,
2013-02-15 09:54:00,55.4,43.8,30.22,NW,312,2.0,4.0,65,0.00,,,0.00,Wunderground v.1.15,2013-02-15 15:54:00,
2013-02-15 09:59:00,55.8,43.8,30.22,NW,319,1.0,1.0,64,0.00,,,0.00,Wunderground v.1.15,2013-02-15 15:59:00,
2013-02-15 10:05:00,56.6,43.7,30.22,North,10,1.0,4.0,62,0.00,,,0.00,Wunderground v.1.15,2013-02-15 16:05:00,
2013-02-15 10:10:00,57.3,45.2,30.22,ENE,61,2.0,5.0,64,0.00,,,0.00,Wunderground v.1.15,2013-02-15 16:10:00,
2013-02-15 10:15:00,57.6,44.2,30.22,NW,314,2.0,5.0,61,0.00,,,0.00,Wunderground v.1.15,2013-02-15 16:15:00,
2013-02-15 10:20:00,57.9,43.7,30.22,NNW,345,3.0,4.0,59,0.00,,,0.00,Wunderground v.1.15,2013-02-15 16:20:00,
2013-02-15 10:26:00,58.0,44.2,30.22,ENE,67,3.0,8.0,60,0.00,,,0.00,Wunderground v.1.15,2013-02-15 16:26:00,
2013-02-15 10:31:00,58.6,44.3,30.22,ESE,113,3.0,5.0,59,0.00,,,0.00,Wunderground v.1.15,2013-02-15 16:31:00,
2013-02-15 10:36:00,59.2,44.0,30.22,ENE,72,2.0,2.0,57,0.00,,,0.00,Wunderground v.1.15,2013-02-15 16:36:00,
2013-02-15 10:42:00,59.9,44.2,30.22,ENE,74,2.0,4.0,56,0.00,,,0.00,Wunderground v.1.15,2013-02-15 16:42:00,
2013-02-15 10:47:00,59.8,43.1,30.22,NE,39,3.0,3.0,54,0.00,,,0.00,Wunderground v.1.15,2013-02-15 16:47:00,
2013-02-15 10:52:00,59.7,43.5,30.22,East,85,3.0,7.0,55,0.00,,,0.00,Wunderground v.1.15,2013-02-15 16:52:00,
2013-02-15 10:57:00,59.3,42.6,30.22,NE,43,3.0,6.0,54,0.00,,,0.00,Wunderground v.1.15,2013-02-15 16:57:00,
2013-02-15 11:03:00,59.8,42.1,30.21,ENE,70,3.0,6.0,52,0.00,,,0.00,Wunderground v.1.15,2013-02-15 17:03:00,
2013-02-15 11:08:00,60.3,44.1,30.21,WNW,294,2.0,6.0,55,0.00,,,0.00,Wunderground v.1.15,2013-02-15 17:08:00,
2013-02-15 11:13:00,60.5,42.8,30.21,WNW,293,2.0,6.0,52,0.00,,,0.00,Wunderground v.1.15,2013-02-15 17:13:00,
2013-02-15 11:18:00,60.9,41.6,30.21,WNW,284,2.0,6.0,49,0.00,,,0.00,Wunderground v.1.15,2013-02-15 17:18:00,
2013-02-15 11:24:00,61.4,43.1,30.21,North,360,2.0,6.0,51,0.00,,,0.00,Wunderground v.1.15,2013-02-15 17:24:00,
2013-02-15 11:29:00,61.8,43.5,30.21,NW,304,2.0,3.0,51,0.00,,,0.00,Wunderground v.1.15,2013-02-15 17:29:00,
2013-02-15 11:35:00,61.8,42.4,30.20,WSW,238,2.0,3.0,49,0.00,,,0.00,Wunderground v.1.15,2013-02-15 17:35:00,
2013-02-15 11:41:00,61.8,43.5,30.20,NE,44,2.0,3.0,51,0.00,,,0.00,Wunderground v.1.15,2013-02-15 17:41:00,
2013-02-15 11:46:00,61.8,44.5,30.20,NNW,340,2.0,2.0,53,0.00,,,0.00,Wunderground v.1.15,2013-02-15 17:46:00,
2013-02-15 11:51:00,62.3,45.4,30.20,NNE,12,2.0,3.0,54,0.00,,,0.00,Wunderground v.1.15,2013-02-15 17:51:00,
2013-02-15 11:57:00,62.5,43.1,30.20,West,263,2.0,2.0,49,0.00,,,0.00,Wunderground v.1.15,2013-02-15 17:57:00,
2013-02-15 12:02:00,62.6,43.2,30.20,NE,41,3.0,4.0,49,0.00,,,0.00,Wunderground v.1.15,2013-02-15 18:02:00,
2013-02-15 12:08:00,61.6,42.8,30.20,NE,51,4.0,5.0,50,0.00,,,0.00,Wunderground v.1.15,2013-02-15 18:08:00,
2013-02-15 12:13:00,61.3,43.0,30.20,WSW,250,4.0,5.0,51,0.00,,,0.00,Wunderground v.1.15,2013-02-15 18:13:00,
2013-02-15 12:18:00,61.4,43.6,30.20,NNW,333,3.0,3.0,52,0.00,,,0.00,Wunderground v.1.15,2013-02-15 18:18:00,
2013-02-15 12:23:00,62.0,42.6,30.20,North,349,3.0,5.0,49,0.00,,,0.00,Wunderground v.1.15,2013-02-15 18:23:00,
2013-02-15 12:29:00,62.2,43.8,30.20,NNW,348,3.0,4.0,51,0.00,,,0.00,Wunderground v.1.15,2013-02-15 18:29:00,
2013-02-15 12:34:00,62.3,43.4,30.19,West,262,3.0,4.0,50,0.00,,,0.00,Wunderground v.1.15,2013-02-15 18:34:00,
2013-02-15 12:40:00,62.5,43.6,30.19,ENE,75,3.0,3.0,50,0.00,,,0.00,Wunderground v.1.15,2013-02-15 18:40:00,
2013-02-15 12:45:00,63.0,43.0,30.19,NE,41,2.0,6.0,48,0.00,,,0.00,Wunderground v.1.15,2013-02-15 18:45:00,
2013-02-15 12:50:00,63.1,44.2,30.18,West,276,2.0,2.0,50,0.00,,,0.00,Wunderground v.1.15,2013-02-15 18:50:00,
2013-02-15 12:55:00,63.7,43.1,30.19,ENE,70,2.0,3.0,47,0.00,,,0.00,Wunderground v.1.15,2013-02-15 18:55:00,
2013-02-15 13:01:00,63.3,44.3,30.18,NNE,22,2.0,9.0,50,0.00,,,0.00,Wunderground v.1.15,2013-02-15 19:01:00,
2013-02-15 13:07:00,63.7,42.5,30.18,WNW,294,2.0,9.0,46,0.00,,,0.00,Wunderground v.1.15,2013-02-15 19:07:00,
2013-02-15 13:12:00,63.6,43.5,30.17,West,262,2.0,9.0,48,0.00,,,0.00,Wunderground v.1.15,2013-02-15 19:12:00,
2013-02-15 13:17:00,64.1,43.4,30.17,NE,37,2.0,9.0,47,0.00,,,0.00,Wunderground v.1.15,2013-02-15 19:17:00,
2013-02-15 13:23:00,63.6,41.9,30.17,NNE,20,3.0,9.0,45,0.00,,,0.00,Wunderground v.1.15,2013-02-15 19:23:00,
2013-02-15 13:29:00,62.6,42.1,30.16,East,81,4.0,9.0,47,0.00,,,0.00,Wunderground v.1.15,2013-02-15 19:29:00,
2013-02-15 13:35:00,63.0,41.9,30.16,NNE,18,4.0,9.0,46,0.00,,,0.00,Wunderground v.1.15,2013-02-15 19:35:00,
2013-02-15 13:40:00,63.3,42.7,30.16,NNW,343,3.0,9.0,47,0.00,,,0.00,Wunderground v.1.15,2013-02-15 19:40:00,
2013-02-15 13:45:00,63.4,42.2,30.16,ENE,70,2.0,9.0,46,0.00,,,0.00,Wunderground v.1.15,2013-02-15 19:45:00,
2013-02-15 13:50:00,63.8,42.6,30.16,ENE,78,2.0,9.0,46,0.00,,,0.00,Wunderground v.1.15,2013-02-15 19:50:00,
2013-02-15 13:55:00,63.9,41.5,30.16,NNW,344,2.0,9.0,44,0.00,,,0.00,Wunderground v.1.15,2013-02-15 19:55:00,
2013-02-15 14:00:00,63.9,42.1,30.16,NE,34,2.0,9.0,45,0.00,,,0.00,Wunderground v.1.15,2013-02-15 20:00:00,
2013-02-15 14:06:00,64.1,41.7,30.15,NE,41,2.0,9.0,44,0.00,,,0.00,Wunderground v.1.15,2013-02-15 20:06:00,
2013-02-15 14:11:00,63.7,43.6,30.15,ENE,60,3.0,9.0,48,0.00,,,0.00,Wunderground v.1.15,2013-02-15 20:11:00,
2013-02-15 14:16:00,64.3,41.3,30.15,NE,49,3.0,3.0,43,0.00,,,0.00,Wunderground v.1.15,2013-02-15 20:16:00,
2013-02-15 14:22:00,64.4,41.4,30.16,North,358,2.0,9.0,43,0.00,,,0.00,Wunderground v.1.15,2013-02-15 20:22:00,
2013-02-15 14:27:00,64.2,41.2,30.15,NE,41,2.0,9.0,43,0.00,,,0.00,Wunderground v.1.15,2013-02-15 20:27:00,
2013-02-15 14:33:00,64.2,41.2,30.15,North,351,2.0,9.0,43,0.00,,,0.00,Wunderground v.1.15,2013-02-15 20:33:00,
2013-02-15 14:38:00,63.7,40.8,30.15,North,8,3.0,9.0,43,0.00,,,0.00,Wunderground v.1.15,2013-02-15 20:38:00,
2013-02-15 14:44:00,63.9,41.5,30.15,NNW,342,4.0,9.0,44,0.00,,,0.00,Wunderground v.1.15,2013-02-15 20:44:00,
2013-02-15 14:50:00,64.1,41.1,30.15,NE,51,2.0,9.0,43,0.00,,,0.00,Wunderground v.1.15,2013-02-15 20:50:00,
2013-02-15 14:55:00,64.7,41.7,30.15,NNE,26,2.0,9.0,43,0.00,,,0.00,Wunderground v.1.15,2013-02-15 20:55:00,
2013-02-15 15:00:00,64.7,40.4,30.15,NNE,30,2.0,9.0,41,0.00,,,0.00,Wunderground v.1.15,2013-02-15 21:00:00,
2013-02-15 15:05:00,64.5,40.3,30.15,North,6,3.0,9.0,41,0.00,,,0.00,Wunderground v.1.15,2013-02-15 21:05:00,
2013-02-15 15:11:00,64.2,40.0,30.15,NNE,13,3.0,9.0,41,0.00,,,0.00,Wunderground v.1.15,2013-02-15 21:11:00,
2013-02-15 15:16:00,63.7,40.2,30.15,NNE,18,3.0,9.0,42,0.00,,,0.00,Wunderground v.1.15,2013-02-15 21:16:00,
2013-02-15 15:22:00,63.5,40.0,30.15,NW,318,3.0,9.0,42,0.00,,,0.00,Wunderground v.1.15,2013-02-15 21:22:00,
2013-02-15 15:27:00,63.5,40.6,30.15,ESE,108,2.0,9.0,43,0.00,,,0.00,Wunderground v.1.15,2013-02-15 21:27:00,
2013-02-15 15:32:00,63.8,39.6,30.14,WNW,291,2.0,9.0,41,0.00,,,0.00,Wunderground v.1.15,2013-02-15 21:32:00,
2013-02-15 15:37:00,63.4,40.5,30.14,NW,314,2.0,9.0,43,0.00,,,0.00,Wunderground v.1.15,2013-02-15 21:37:00,
2013-02-15 15:43:00,63.1,40.2,30.14,WNW,284,2.0,9.0,43,0.00,,,0.00,Wunderground v.1.15,2013-02-15 21:43:00,
2013-02-15 15:48:00,63.1,39.6,30.14,NE,49,3.0,9.0,42,0.00,,,0.00,Wunderground v.1.15,2013-02-15 21:48:00,
2013-02-15 15:54:00,63.2,39.7,30.14,WNW,302,3.0,9.0,42,0.00,,,0.00,Wunderground v.1.15,2013-02-15 21:54:00,
2013-02-15 16:00:00,62.8,40.0,30.14,NNW,333,3.0,9.0,43,0.00,,,0.00,Wunderground v.1.15,2013-02-15 22:00:00,
2013-02-15 16:05:00,62.6,39.8,30.14,NE,39,2.0,9.0,43,0.00,,,0.00,Wunderground v.1.15,2013-02-15 22:05:00,
2013-02-15 16:10:00,62.8,40.0,30.14,NNW,338,1.0,9.0,43,0.00,,,0.00,Wunderground v.1.15,2013-02-15 22:10:00,
2013-02-15 16:15:00,62.7,41.0,30.14,WNW,290,1.0,9.0,45,0.00,,,0.00,Wunderground v.1.15,2013-02-15 22:15:00,
2013-02-15 16:21:00,62.5,39.7,30.14,North,6,2.0,9.0,43,0.00,,,0.00,Wunderground v.1.15,2013-02-15 22:21:00,
2013-02-15 16:26:00,62.5,40.3,30.14,NNE,12,2.0,9.0,44,0.00,,,0.00,Wunderground v.1.15,2013-02-15 22:26:00,
2013-02-15 16:32:00,62.3,39.5,30.14,NE,49,2.0,9.0,43,0.00,,,0.00,Wunderground v.1.15,2013-02-15 22:32:00,
2013-02-15 16:37:00,61.8,39.6,30.14,East,79,4.0,4.0,44,0.00,,,0.00,Wunderground v.1.15,2013-02-15 22:37:00,
2013-02-15 16:43:00,61.7,39.6,30.15,NW,316,4.0,9.0,44,0.00,,,0.00,Wunderground v.1.15,2013-02-15 22:43:00,
2013-02-15 16:48:00,61.4,41.0,30.15,WNW,300,2.0,9.0,47,0.00,,,0.00,Wunderground v.1.15,2013-02-15 22:48:00,
2013-02-15 16:54:00,60.3,43.1,30.16,NNW,327,3.0,9.0,53,0.00,,,0.00,Wunderground v.1.15,2013-02-15 22:54:00,
2013-02-15 16:59:00,59.7,42.5,30.16,West,276,3.0,9.0,53,0.00,,,0.00,Wunderground v.1.15,2013-02-15 22:59:00,
2013-02-15 17:05:00,58.7,42.1,30.16,WNW,285,3.0,9.0,54,0.00,,,0.00,Wunderground v.1.15,2013-02-15 23:05:00,
2013-02-15 17:10:00,58.1,42.0,30.16,NNE,15,4.0,9.0,55,0.00,,,0.00,Wunderground v.1.15,2013-02-15 23:10:00,
2013-02-15 17:15:00,57.6,42.0,30.17,NNE,14,3.0,9.0,56,0.00,,,0.00,Wunderground v.1.15,2013-02-15 23:15:00,
2013-02-15 17:20:00,57.2,42.1,30.17,South,179,2.0,9.0,57,0.00,,,0.00,Wunderground v.1.15,2013-02-15 23:20:00,
2013-02-15 17:26:00,56.8,42.2,30.17,ENE,68,1.0,9.0,58,0.00,,,0.00,Wunderground v.1.15,2013-02-15 23:26:00,
2013-02-15 17:31:00,56.3,42.1,30.17,WNW,285,1.0,9.0,59,0.00,,,0.00,Wunderground v.1.15,2013-02-15 23:31:00,
2013-02-15 17:36:00,55.9,42.2,30.17,WNW,283,2.0,9.0,60,0.00,,,0.00,Wunderground v.1.15,2013-02-15 23:36:00,
2013-02-15 17:42:00,55.4,42.2,30.17,North,9,2.0,9.0,61,0.00,,,0.00,Wunderground v.1.15,2013-02-15 23:42:00,
2013-02-15 17:47:00,54.9,42.1,30.18,NW,307,3.0,3.0,62,0.00,,,0.00,Wunderground v.1.15,2013-02-15 23:47:00,
2013-02-15 17:52:00,54.3,42.0,30.18,NW,315,2.0,9.0,63,0.00,,,0.00,Wunderground v.1.15,2013-02-15 23:52:00,
2013-02-15 17:58:00,53.8,42.3,30.18,WNW,297,3.0,9.0,65,0.00,,,0.00,Wunderground v.1.15,2013-02-15 23:58:00,
2013-02-15 18:03:00,53.2,41.7,30.19,NNW,330,3.0,9.0,65,0.00,,,0.00,Wunderground v.1.15,2013-02-16 00:03:00,
2013-02-15 18:08:00,52.8,41.7,30.19,WNW,302,2.0,9.0,66,0.00,,,0.00,Wunderground v.1.15,2013-02-16 00:08:00,
2013-02-15 18:13:00,52.5,41.5,30.18,NNW,340,2.0,9.0,66,0.00,,,0.00,Wunderground v.1.15,2013-02-16 00:13:00,
2013-02-15 18:19:00,52.2,41.6,30.19,NNW,348,2.0,9.0,67,0.00,,,0.00,Wunderground v.1.15,2013-02-16 00:19:00,
2013-02-15 18:24:00,52.0,41.4,30.19,NW,318,2.0,9.0,67,0.00,,,0.00,Wunderground v.1.15,2013-02-16 00:24:00,
2013-02-15 18:30:00,51.8,41.6,30.20,WNW,300,2.0,9.0,68,0.00,,,0.00,Wunderground v.1.15,2013-02-16 00:30:00,
2013-02-15 18:35:00,51.6,41.4,30.19,NNW,330,2.0,9.0,68,0.00,,,0.00,Wunderground v.1.15,2013-02-16 00:35:00,
2013-02-15 18:40:00,51.5,41.7,30.20,ENE,64,2.0,9.0,69,0.00,,,0.00,Wunderground v.1.15,2013-02-16 00:40:00,
2013-02-15 18:46:00,51.3,41.8,30.20,WNW,300,2.0,9.0,70,0.00,,,0.00,Wunderground v.1.15,2013-02-16 00:46:00,
2013-02-15 18:51:00,51.1,41.7,30.20,NW,319,2.0,9.0,70,0.00,,,0.00,Wunderground v.1.15,2013-02-16 00:51:00,
2013-02-15 18:56:00,51.0,41.6,30.21,North,360,2.0,9.0,70,0.00,,,0.00,Wunderground v.1.15,2013-02-16 00:56:00,
2013-02-15 19:01:00,51.0,41.6,30.21,NNW,330,2.0,9.0,70,0.00,,,0.00,Wunderground v.1.15,2013-02-16 01:01:00,
2013-02-15 19:07:00,50.9,41.5,30.21,NW,309,2.0,2.0,70,0.00,,,0.00,Wunderground v.1.15,2013-02-16 01:07:00,
2013-02-15 19:12:00,50.8,41.7,30.21,ESE,103,2.0,9.0,71,0.00,,,0.00,Wunderground v.1.15,2013-02-16 01:12:00,
2013-02-15 19:18:00,50.8,42.1,30.21,North,356,1.0,9.0,72,0.00,,,0.00,Wunderground v.1.15,2013-02-16 01:18:00,
2013-02-15 19:23:00,50.7,42.0,30.21,NW,324,1.0,9.0,72,0.00,,,0.00,Wunderground v.1.15,2013-02-16 01:23:00,
2013-02-15 19:29:00,50.5,41.8,30.21,NNW,347,1.0,9.0,72,0.00,,,0.00,Wunderground v.1.15,2013-02-16 01:29:00,
2013-02-15 19:35:00,50.5,42.2,30.21,North,349,1.0,9.0,73,0.00,,,0.00,Wunderground v.1.15,2013-02-16 01:35:00,
2013-02-15 19:40:00,50.4,41.7,30.22,NW,305,1.0,9.0,72,0.00,,,0.00,Wunderground v.1.15,2013-02-16 01:40:00,
2013-02-15 19:45:00,50.4,42.1,30.22,North,358,1.0,9.0,73,0.00,,,0.00,Wunderground v.1.15,2013-02-16 01:45:00,
2013-02-15 19:51:00,50.3,41.6,30.22,East,82,1.0,9.0,72,0.00,,,0.00,Wunderground v.1.15,2013-02-16 01:51:00,
2013-02-15 19:56:00,50.3,41.6,30.22,WNW,301,1.0,1.0,72,0.00,,,0.00,Wunderground v.1.15,2013-02-16 01:56:00,
2013-02-15 20:02:00,50.3,41.6,30.23,WSW,252,1.0,9.0,72,0.00,,,0.00,Wunderground v.1.15,2013-02-16 02:02:00,
2013-02-15 20:07:00,50.3,41.6,30.23,WSW,257,1.0,9.0,72,0.00,,,0.00,Wunderground v.1.15,2013-02-16 02:07:00,
2013-02-15 20:13:00,50.2,41.9,30.23,NNE,13,2.0,9.0,73,0.00,,,0.00,Wunderground v.1.15,2013-02-16 02:13:00,
2013-02-15 20:19:00,50.1,41.8,30.23,West,280,1.0,9.0,73,0.00,,,0.00,Wunderground v.1.15,2013-02-16 02:19:00,
2013-02-15 20:24:00,49.9,41.6,30.23,NNW,333,1.0,9.0,73,0.00,,,0.00,Wunderground v.1.15,2013-02-16 02:24:00,
2013-02-15 20:30:00,49.7,41.7,30.24,NNW,340,1.0,9.0,74,0.00,,,0.00,Wunderground v.1.15,2013-02-16 02:30:00,
2013-02-15 20:35:00,49.6,41.7,30.24,WNW,300,1.0,9.0,74,0.00,,,0.00,Wunderground v.1.15,2013-02-16 02:35:00,
2013-02-15 20:40:00,49.5,42.2,30.24,WNW,290,2.0,9.0,76,0.00,,,0.00,Wunderground v.1.15,2013-02-16 02:40:00,
2013-02-15 20:45:00,49.5,41.9,30.24,WNW,293,1.0,9.0,75,0.00,,,0.00,Wunderground v.1.15,2013-02-16 02:45:00,
2013-02-15 20:51:00,49.4,42.1,30.25,NW,316,1.0,9.0,76,0.00,,,0.00,Wunderground v.1.15,2013-02-16 02:51:00,
2013-02-15 20:56:00,49.2,42.0,30.25,WNW,289,2.0,9.0,76,0.00,,,0.00,Wunderground v.1.15,2013-02-16 02:56:00,
2013-02-15 21:01:00,49.3,42.4,30.25,ESE,105,2.0,9.0,77,0.00,,,0.00,Wunderground v.1.15,2013-02-16 03:01:00,
2013-02-15 21:07:00,49.4,43.2,30.25,NNW,342,2.0,9.0,79,0.00,,,0.00,Wunderground v.1.15,2013-02-16 03:07:00,
2013-02-15 21:13:00,49.5,42.6,30.25,West,267,2.0,9.0,77,0.00,,,0.00,Wunderground v.1.15,2013-02-16 03:13:00,
2013-02-15 21:18:00,49.5,42.6,30.25,NW,319,2.0,9.0,77,0.00,,,0.00,Wunderground v.1.15,2013-02-16 03:18:00,
2013-02-15 21:24:00,49.3,42.4,30.25,NNW,328,2.0,9.0,77,0.00,,,0.00,Wunderground v.1.15,2013-02-16 03:24:00,
2013-02-15 21:29:00,49.2,42.3,30.25,WNW,302,3.0,9.0,77,0.00,,,0.00,Wunderground v.1.15,2013-02-16 03:29:00,
2013-02-15 21:35:00,49.0,42.1,30.26,WNW,283,3.0,9.0,77,0.00,,,0.00,Wunderground v.1.15,2013-02-16 03:35:00,
2013-02-15 21:40:00,48.9,42.3,30.25,WNW,288,3.0,9.0,78,0.00,,,0.00,Wunderground v.1.15,2013-02-16 03:40:00,
2013-02-15 21:45:00,48.7,42.1,30.25,WNW,285,2.0,9.0,78,0.00,,,0.00,Wunderground v.1.15,2013-02-16 03:45:00,
2013-02-15 21:50:00,48.9,42.7,30.25,NW,320,1.0,9.0,79,0.00,,,0.00,Wunderground v.1.15,2013-02-16 03:50:00,
2013-02-15 21:56:00,48.6,42.4,30.26,WSW,239,1.0,9.0,79,0.00,,,0.00,Wunderground v.1.15,2013-02-16 03:56:00,
2013-02-15 22:01:00,48.3,42.4,30.26,WNW,291,2.0,9.0,80,0.00,,,0.00,Wunderground v.1.15,2013-02-16 04:01:00,
2013-02-15 22:07:00,48.0,42.4,30.26,West,261,2.0,2.0,81,0.00,,,0.00,Wunderground v.1.15,2013-02-16 04:07:00,
2013-02-15 22:12:00,48.0,42.8,30.26,NW,315,2.0,9.0,82,0.00,,,0.00,Wunderground v.1.15,2013-02-16 04:12:00,
2013-02-15 22:17:00,47.9,42.3,30.26,West,261,2.0,9.0,81,0.00,,,0.00,Wunderground v.1.15,2013-02-16 04:17:00,
2013-02-15 22:22:00,47.7,42.2,30.26,WNW,288,3.0,9.0,81,0.00,,,0.00,Wunderground v.1.15,2013-02-16 04:22:00,
2013-02-15 22:28:00,47.5,42.3,30.26,WNW,282,2.0,9.0,82,0.00,,,0.00,Wunderground v.1.15,2013-02-16 04:28:00,
2013-02-15 22:33:00,47.3,42.4,30.26,NW,312,2.0,9.0,83,0.00,,,0.00,Wunderground v.1.15,2013-02-16 04:33:00,
2013-02-15 22:38:00,47.3,42.4,30.26,NNW,330,2.0,9.0,83,0.00,,,0.00,Wunderground v.1.15,2013-02-16 04:38:00,
2013-02-15 22:44:00,47.3,42.4,30.26,WNW,297,2.0,9.0,83,0.00,,,0.00,Wunderground v.1.15,2013-02-16 04:44:00,
2013-02-15 22:49:00,47.2,42.3,30.26,NW,320,3.0,9.0,83,0.00,,,0.00,Wunderground v.1.15,2013-02-16 04:49:00,
2013-02-15 22:55:00,47.2,42.3,30.27,WNW,287,2.0,9.0,83,0.00,,,0.00,Wunderground v.1.15,2013-02-16 04:55:00,
2013-02-15 23:00:00,47.3,42.1,30.26,NW,319,2.0,9.0,82,0.00,,,0.00,Wunderground v.1.15,2013-02-16 05:00:00,
2013-02-15 23:01:00,47.3,42.1,30.26,WNW,290,2.0,9.0,82,0.00,,,0.00,Wunderground v.1.15,2013-02-16 05:01:00,
2013-02-15 23:04:00,47.3,41.4,30.26,SW,219,2.0,9.0,80,0.00,,,0.00,Wunderground v.1.15,2013-02-16 05:04:00,
2013-02-15 23:05:00,47.3,41.4,30.26,NNW,333,2.0,9.0,80,0.00,,,0.00,Wunderground v.1.15,2013-02-16 05:05:00,
2013-02-15 23:10:00,47.4,40.9,30.27,NE,51,3.0,9.0,78,0.00,,,0.00,Wunderground v.1.15,2013-02-16 05:10:00,
2013-02-15 23:16:00,47.4,40.6,30.26,SW,234,2.0,9.0,77,0.00,,,0.00,Wunderground v.1.15,2013-02-16 05:16:00,
2013-02-15 23:21:00,47.4,39.9,30.27,WNW,295,2.0,9.0,75,0.00,,,0.00,Wunderground v.1.15,2013-02-16 05:21:00,
2013-02-15 23:25:00,47.3,39.4,30.27,NNE,29,2.0,9.0,74,0.00,,,0.00,Wunderground v.1.15,2013-02-16 05:25:00,
2013-02-15 23:31:00,47.2,39.0,30.27,West,264,2.0,9.0,73,0.00,,,0.00,Wunderground v.1.15,2013-02-16 05:31:00,
2013-02-15 23:36:00,47.1,37.8,30.27,East,101,2.0,9.0,70,0.00,,,0.00,Wunderground v.1.15,2013-02-16 05:36:00,
2013-02-15 23:41:00,47.0,37.4,30.27,NW,326,2.0,9.0,69,0.00,,,0.00,Wunderground v.1.15,2013-02-16 05:41:00,
2013-02-15 23:47:00,46.9,36.5,30.27,WNW,283,2.0,2.0,67,0.00,,,0.00,Wunderground v.1.15,2013-02-16 05:47:00,
2013-02-15 23:52:00,46.7,36.3,30.27,WNW,288,2.0,9.0,67,0.00,,,0.00,Wunderground v.1.15,2013-02-16 05:52:00,
2013-02-15 23:58:00,46.7,35.6,30.27,NNE,31,2.0,9.0,65,0.00,,,0.00,Wunderground v.1.15,2013-02-16 05:58:00,